KPHT

Henry County Airport

Paris, Tennessee, USA
METAR KPHT 190835Z AUTO 00000KT 10SM FEW050 20/19 A2996 RMK A01
Observed Flight Rules
Sep-19 @ 08:35 UTC (30 minutes ago) Visual Flight Rules
Visibility Clouds
10 miles
  • Few at 5,000' AGL
Temperatures Readings
Current 20°C / 68°F
Dewpoint 19°C / 66°F
Humidity 94%
Altimeter 29.96" Hg
Pressure 1015 hPa
Elevation 177
METAR KPHT 190835Z AUTO 00000KT 10SM FEW050 20/19 A2996 RMK A01
Observed Flight Rules
Sep-19 @ 08:35 UTC
(30 minutes ago)
VFR
Clouds
  • Few at 5,000' AGL
Temperature Dewpoint
20°C / 68°F 19°C / 66°F
Humidity Altimeter Pressure
94% 29.96" Hg 1015 hPa